Time;durP1;ratioP1;P1;durP2;ratioP2;P2;SDS_P1;SDS_P2;PMS_P1;PMS_P2;Temp;Humidity;BMP_temperature;BMP_pressure;BME280_temperature;BME280_humidity;BME280_pressure;Samples;Min_cycle;Max_cycle;Signal;HPM_P1;HPM_P2
2022/04/26 03:36:22;;;;;;;30.52;20.02;;;;;;;7.47;83.12;100116.89;2173045;81;33146;-62
2022/04/26 03:39:24;;;;;;;30.77;20.15;;;;;;;7.47;83.07;100126.67;2173290;81;32976;-61
2022/04/26 03:42:25;;;;;;;33.28;20.85;;;;;;;7.45;83.04;100126.73;2173751;81;30537;-61
2022/04/26 03:45:28;;;;;;;28.92;21.02;;;;;;;7.44;83.00;100125.00;2173192;81;28280;-62
2022/04/26 03:48:30;;;;;;;30.55;22.10;;;;;;;7.44;83.11;100123.67;2172984;81;28942;-61
2022/04/26 03:51:32;;;;;;;31.42;22.10;;;;;;;7.45;83.12;100128.08;2173051;81;31990;-61
2022/04/26 03:54:35;;;;;;;31.23;21.62;;;;;;;7.44;83.03;100132.55;2173489;81;33287;-61
2022/04/26 03:57:37;;;;;;;30.92;19.90;;;;;;;7.43;83.06;100135.26;2172990;81;30890;-62
2022/04/26 04:00:39;;;;;;;29.52;20.17;;;;;;;7.43;83.10;100142.80;2173415;81;28275;-61
2022/04/26 04:03:40;;;;;;;29.42;21.00;;;;;;;7.43;83.10;100137.48;2173388;81;28447;-62
2022/04/26 04:06:42;;;;;;;29.82;22.22;;;;;;;7.44;83.07;100142.33;2173770;81;32045;-61
2022/04/26 04:09:44;;;;;;;29.10;20.90;;;;;;;7.45;83.12;100146.73;2173215;81;34094;-62
2022/04/26 04:12:45;;;;;;;31.12;20.55;;;;;;;7.45;82.98;100150.25;2173282;81;30800;-61
2022/04/26 04:15:47;;;;;;;33.08;20.77;;;;;;;7.46;82.99;100152.47;2173490;81;27606;-61
2022/04/26 04:22:09;;;;;;;33.95;21.80;;;;;;;7.49;82.95;100164.80;2173139;81;31612;-61
2022/04/26 04:25:11;;;;;;;36.77;23.10;;;;;;;7.49;82.96;100167.45;2173318;81;33338;-62
2022/04/26 04:28:14;;;;;;;39.13;23.35;;;;;;;7.50;82.99;100171.42;2173032;81;30073;-62
2022/04/26 04:31:16;;;;;;;34.85;23.80;;;;;;;7.52;82.95;100176.67;2173462;81;27701;-62
2022/04/26 04:34:18;;;;;;;35.20;23.83;;;;;;;7.54;82.94;100176.16;2172968;81;29968;-62
2022/04/26 04:37:21;;;;;;;30.08;21.73;;;;;;;7.57;83.04;100176.04;2172907;81;32325;-62
2022/04/26 04:40:22;;;;;;;31.77;21.90;;;;;;;7.60;82.95;100178.11;2172872;81;33980;-62
2022/04/26 04:43:25;;;;;;;33.88;21.70;;;;;;;7.67;83.02;100189.41;2172983;81;30185;-62
2022/04/26 04:46:31;;;;;;;34.18;21.93;;;;;;;7.74;83.04;100184.25;2173256;81;27599;-62
2022/04/26 04:49:33;;;;;;;36.90;21.40;;;;;;;7.81;82.99;100190.20;2172942;81;29256;-62
2022/04/26 04:52:36;;;;;;;32.30;22.45;;;;;;;7.88;82.99;100189.48;2173090;81;32209;-61
2022/04/26 04:55:41;;;;;;;31.07;21.80;;;;;;;7.98;82.88;100199.32;2173284;81;33663;-61
2022/04/26 04:58:43;;;;;;;33.20;22.32;;;;;;;8.02;82.75;100199.13;2172883;81;30866;-61
2022/04/26 05:01:45;;;;;;;34.70;21.97;;;;;;;8.12;82.89;100203.63;2173352;81;28289;-62
2022/04/26 05:04:48;;;;;;;32.48;22.15;;;;;;;8.21;82.77;100209.05;2173024;81;29277;-62
2022/04/26 05:07:50;;;;;;;39.60;25.72;;;;;;;8.32;82.82;100208.12;2173084;81;31928;-62
2022/04/26 05:10:52;;;;;;;35.33;24.35;;;;;;;8.42;82.74;100215.28;2173218;81;33921;-60
2022/04/26 05:13:54;;;;;;;34.20;23.47;;;;;;;8.53;82.48;100217.53;2172804;81;30804;-61
2022/04/26 05:16:55;;;;;;;35.28;24.67;;;;;;;8.63;82.41;100224.69;2173000;81;27876;-60
2022/04/26 05:19:59;;;;;;;32.90;22.75;;;;;;;8.72;82.31;100223.42;2173428;81;28784;-61
2022/04/26 05:26:21;;;;;;;32.40;21.07;;;;;;;8.91;82.25;100227.03;2172972;81;33609;-61
2022/04/26 05:29:23;;;;;;;34.48;21.25;;;;;;;9.00;81.81;100231.56;2172733;81;30934;-61
2022/04/26 05:32:28;;;;;;;33.98;23.73;;;;;;;9.11;81.72;100232.83;2172885;81;27730;-62
2022/04/26 05:35:30;;;;;;;35.10;23.38;;;;;;;9.21;81.65;100229.27;2152679;82;29250;-62
2022/04/26 05:38:34;;;;;;;28.15;19.12;;;;;;;9.33;81.29;100225.63;2110303;84;30912;-62
2022/04/26 05:41:36;;;;;;;30.92;20.62;;;;;;;9.39;80.62;100230.23;2112633;84;32973;-62
2022/04/26 05:44:42;;;;;;;32.70;21.70;;;;;;;9.43;80.86;100228.30;2125714;83;30628;-60
2022/04/26 05:47:45;;;;;;;31.00;22.27;;;;;;;9.53;80.57;100224.70;2126148;83;27644;-61
2022/04/26 05:50:48;;;;;;;31.42;20.15;;;;;;;9.62;80.71;100226.97;2125718;83;29610;-62
2022/04/26 05:53:50;;;;;;;26.25;19.85;;;;;;;9.75;80.44;100234.41;2125727;83;32097;-61
2022/04/26 05:56:54;;;;;;;30.90;19.17;;;;;;;9.83;80.24;100238.94;2125712;83;34207;-62
2022/04/26 05:59:59;;;;;;;29.95;19.25;;;;;;;9.84;79.84;100242.02;2125861;83;33817;-62
2022/04/26 06:03:01;;;;;;;30.20;20.10;;;;;;;9.85;79.71;100238.36;2126062;83;27726;-61
2022/04/26 06:06:04;;;;;;;30.30;18.95;;;;;;;9.89;79.70;100237.28;2125874;83;28893;-62
2022/04/26 06:09:07;;;;;;;28.85;18.50;;;;;;;9.91;79.48;100241.24;2125892;83;31921;-64
2022/04/26 06:12:09;;;;;;;23.52;18.00;;;;;;;9.93;79.29;100238.88;2125810;83;34199;-61
2022/04/26 06:15:14;;;;;;;25.72;18.12;;;;;;;9.98;79.09;100242.22;2125956;83;31002;-62
2022/04/26 06:18:16;;;;;;;25.57;17.92;;;;;;;10.01;78.65;100246.54;2126342;83;27737;-62
2022/04/26 06:21:18;;;;;;;24.55;19.07;;;;;;;9.95;78.39;100247.70;2125850;83;29788;-63
2022/04/26 06:24:20;;;;;;;26.77;17.25;;;;;;;9.96;78.39;100245.88;2126311;83;30822;-61
2022/04/26 06:27:23;;;;;;;27.17;18.95;;;;;;;9.95;77.90;100241.02;2125658;83;33985;-60
2022/04/26 06:30:25;;;;;;;28.20;17.98;;;;;;;9.98;78.08;100245.34;2125631;83;30532;-61
2022/04/26 06:33:28;;;;;;;32.85;19.05;;;;;;;10.08;78.00;100243.09;2125843;83;27643;-63
2022/04/26 06:36:30;;;;;;;29.27;19.12;;;;;;;10.14;77.76;100243.66;2153479;82;29908;-62
2022/04/26 06:39:32;;;;;;;30.08;19.95;;;;;;;10.29;77.81;100248.74;2194267;81;32289;-62
2022/04/26 06:42:35;;;;;;;27.07;19.02;;;;;;;10.47;77.78;100251.48;2194182;81;34374;-62
2022/04/26 06:45:37;;;;;;;25.37;19.00;;;;;;;10.63;77.77;100247.55;2165309;82;29471;-62
2022/04/26 06:48:38;;;;;;;27.80;17.90;;;;;;;10.79;76.68;100247.16;2194615;79;27711;-62
2022/04/26 06:51:43;;;;;;;25.12;19.05;;;;;;;10.98;76.50;100248.88;2194325;81;29080;-62
2022/04/26 06:54:45;;;;;;;24.12;17.62;;;;;;;11.23;76.77;100251.63;2194190;81;32265;-61
2022/04/26 06:57:48;;;;;;;26.77;17.45;;;;;;;11.49;76.54;100260.08;2195032;81;32968;-62
2022/04/26 07:00:49;;;;;;;25.88;17.52;;;;;;;11.72;76.18;100260.64;2165276;82;29705;-62
2022/04/26 07:03:52;;;;;;;22.40;16.82;;;;;;;11.99;75.43;100259.12;2195035;81;27687;-62
2022/04/26 07:06:53;;;;;;;24.98;15.88;;;;;;;12.15;74.86;100260.48;2194600;81;28529;-63
2022/04/26 07:09:56;;;;;;;21.17;14.73;;;;;;;12.34;74.54;100268.80;2194227;81;31897;-62
2022/04/26 07:12:59;;;;;;;24.00;15.38;;;;;;;12.39;73.77;100267.22;2194212;81;34210;-62
2022/04/26 07:16:01;;;;;;;21.73;15.55;;;;;;;12.47;73.80;100271.66;2194302;81;30030;-62
2022/04/26 07:19:03;;;;;;;20.80;15.38;;;;;;;12.53;73.48;100267.73;2165333;82;27598;-63
2022/04/26 07:22:08;;;;;;;21.42;14.75;;;;;;;12.58;73.31;100271.88;2194711;81;28824;-62
2022/04/26 07:25:11;;;;;;;21.62;14.23;;;;;;;12.66;72.58;100268.74;2194804;81;31027;-62
2022/04/26 07:28:13;;;;;;;19.80;14.15;;;;;;;12.75;72.91;100272.25;2165145;82;33857;-62
2022/04/26 07:31:15;;;;;;;18.55;13.62;;;;;;;12.92;73.32;100269.03;2194215;81;30997;-63
2022/04/26 07:34:24;;;;;;;16.90;12.70;;;;;;;13.12;72.73;100277.23;2194407;81;27660;-63
2022/04/26 07:37:26;;;;;;;20.95;11.93;;;;;;;13.30;72.25;100284.67;2165149;82;30077;-62
2022/04/26 07:40:29;;;;;;;17.95;12.20;;;;;;;13.42;71.23;100284.41;2193946;81;32334;-61
2022/04/26 07:43:30;;;;;;;16.45;12.10;;;;;;;13.58;71.21;100283.45;2194314;81;33494;-62
2022/04/26 07:46:32;;;;;;;14.68;11.88;;;;;;;13.76;71.51;100286.83;2164752;82;31017;-62
2022/04/26 07:49:36;;;;;;;14.78;10.95;;;;;;;14.00;70.96;100288.44;2194685;81;27589;-62
2022/04/26 07:52:39;;;;;;;16.17;10.97;;;;;;;14.18;69.85;100281.47;2194943;81;28648;-62
2022/04/26 07:55:41;;;;;;;15.28;11.68;;;;;;;14.41;69.42;100282.66;2194389;81;32233;-62
2022/04/26 07:58:44;;;;;;;14.87;10.78;;;;;;;14.59;69.74;100284.13;2194732;81;32959;-62
2022/04/26 08:01:46;;;;;;;19.42;11.40;;;;;;;14.68;68.64;100268.32;2194405;81;30912;-63
2022/04/26 08:04:48;;;;;;;15.45;10.75;;;;;;;14.92;68.47;100270.33;2194438;81;27632;-62
2022/04/26 08:07:50;;;;;;;16.95;9.18;;;;;;;15.18;67.96;100295.52;2194390;81;29894;-64
2022/04/26 08:10:53;;;;;;;9.33;8.08;;;;;;;15.58;67.17;100302.66;2194677;81;31639;-64
2022/04/26 08:13:56;;;;;;;12.10;8.58;;;;;;;15.58;67.17;100302.66;2194340;80;34178;-67
2022/04/26 08:16:58;;;;;;;11.30;8.48;;;;;;;15.58;66.79;100291.36;2194638;81;30425;-63
2022/04/26 08:20:00;;;;;;;19.27;11.00;;;;;;;15.83;66.05;100304.95;2194623;81;27732;-66
2022/04/26 08:23:06;;;;;;;11.25;9.05;;;;;;;16.01;65.83;100307.70;2194451;81;29533;-64
2022/04/26 08:29:29;;;;;;;14.30;10.05;;;;;;;16.85;65.80;100312.38;2194499;81;34285;-63
2022/04/26 08:32:46;;;;;;;10.25;8.63;;;;;;;17.35;64.84;100311.33;2194344;81;30795;-68
2022/04/26 08:35:49;;;;;;;15.60;10.30;;;;;;;17.33;64.32;100307.87;2194579;81;27714;-64
2022/04/26 08:38:52;;;;;;;14.50;9.85;;;;;;;17.22;63.59;100310.94;2165346;82;28671;-66
2022/04/26 08:42:01;;;;;;;13.38;10.50;;;;;;;17.15;63.57;100317.33;2194316;81;31879;-64
2022/04/26 08:45:09;;;;;;;13.60;9.95;;;;;;;17.21;63.47;100311.92;2165251;82;33750;-68
2022/04/26 08:51:33;;;;;;;15.85;10.15;;;;;;;17.01;61.98;100320.23;2194691;81;27717;-67
2022/04/26 08:54:35;;;;;;;13.32;8.40;;;;;;;16.78;62.19;100322.80;2165719;82;29669;-63
2022/04/26 08:57:38;;;;;;;13.10;8.75;;;;;;;16.69;61.98;100322.16;2194356;81;32283;-64
2022/04/26 09:00:43;;;;;;;10.58;8.30;;;;;;;16.56;61.46;100324.91;2194337;81;34355;-68
2022/04/26 09:03:54;;;;;;;14.18;10.32;;;;;;;16.40;61.38;100320.64;2194436;81;29670;-61
2022/04/26 09:06:56;;;;;;;10.50;8.28;;;;;;;16.29;61.17;100328.69;2194437;81;27712;-64
2022/04/26 09:10:13;;;;;;;10.72;8.18;;;;;;;16.22;61.21;100333.66;2194375;81;28846;-63
2022/04/26 09:13:19;;;;;;;10.75;7.50;;;;;;;16.23;61.08;100334.53;2193045;81;32262;-68
2022/04/26 09:16:22;;;;;;;7.72;6.92;;;;;;;16.25;60.91;100338.84;2194639;81;33626;-64
2022/04/26 09:19:26;;;;;;;8.88;6.87;;;;;;;16.28;60.29;100336.42;2195194;81;30615;-67
2022/04/26 09:22:29;;;;;;;7.97;6.50;;;;;;;16.19;58.17;100339.31;2167855;81;27828;-69
2022/04/26 09:25:31;;;;;;;8.48;6.37;;;;;;;15.82;58.66;100343.27;2194761;81;28805;-62
2022/04/26 09:28:33;;;;;;;7.65;6.42;;;;;;;15.55;58.18;100342.91;2194310;81;32255;-61
2022/04/26 09:31:37;;;;;;;8.98;6.50;;;;;;;15.57;57.90;100340.94;2194658;81;32749;-62
2022/04/26 09:34:40;;;;;;;8.60;6.50;;;;;;;15.65;58.70;100339.05;2194994;81;29794;-61
2022/04/26 09:37:45;;;;;;;7.35;6.65;;;;;;;15.77;58.38;100340.91;2194546;81;27635;-65
2022/04/26 09:40:48;;;;;;;7.78;6.53;;;;;;;15.83;58.81;100340.06;2194382;81;29724;-61
2022/04/26 09:44:03;;;;;;;9.55;6.80;;;;;;;15.92;57.58;100342.16;2194400;81;32402;-61
2022/04/26 09:47:06;;;;;;;11.80;7.50;;;;;;;15.85;58.72;100342.17;2138887;83;32947;-63
2022/04/26 09:50:12;;;;;;;9.13;7.15;;;;;;;15.88;58.94;100337.95;2138820;83;29732;-66
2022/04/26 09:53:18;;;;;;;11.53;6.75;;;;;;;16.13;59.03;100339.74;2138903;83;27736;-61
2022/04/26 09:56:22;;;;;;;6.95;5.95;;;;;;;16.33;58.96;100333.38;2138821;83;29132;-65
2022/04/26 09:59:27;;;;;;;8.50;6.55;;;;;;;16.27;57.47;100334.70;2138890;83;30817;-65
2022/04/26 10:02:33;;;;;;;8.73;5.50;;;;;;;16.16;56.89;100339.53;2138500;83;33144;-61
2022/04/26 10:05:39;;;;;;;9.83;6.95;;;;;;;16.00;55.39;100341.61;2138403;83;30477;-64
2022/04/26 10:08:41;;;;;;;6.83;5.20;;;;;;;15.67;56.15;100343.01;2138951;83;27797;-63
2022/04/26 10:11:43;;;;;;;6.87;5.78;;;;;;;15.39;56.37;100334.14;2138343;83;29450;-69
2022/04/26 10:14:46;;;;;;;9.68;5.87;;;;;;;15.26;56.66;100338.17;2138348;83;32368;-66
2022/04/26 10:17:50;;;;;;;6.70;5.50;;;;;;;15.22;56.03;100337.99;2138129;83;33848;-67
2022/04/26 10:20:53;;;;;;;7.35;4.75;;;;;;;15.22;56.71;100336.18;2138610;83;29815;-68
2022/04/26 10:24:04;;;;;;;6.20;5.35;;;;;;;15.29;56.08;100329.37;2166410;81;27730;-62
2022/04/26 10:27:23;;;;;;;6.78;4.90;;;;;;;15.48;56.56;100328.94;2138789;83;28701;-61
2022/04/26 10:30:51;;;;;;;7.08;6.10;;;;;;;15.72;57.27;100333.60;2137143;83;30739;-61
2022/04/26 10:33:57;;;;;;;9.38;5.83;;;;;;;15.75;55.64;100328.45;2127031;83;33451;-62
2022/04/26 10:37:10;;;;;;;8.65;6.33;;;;;;;15.76;56.35;100324.78;2137183;83;29657;-61
2022/04/26 10:40:13;;;;;;;7.65;5.85;;;;;;;15.72;56.16;100328.70;2138690;83;28158;-62
2022/04/26 10:43:16;;;;;;;4.78;4.28;;;;;;;15.63;56.00;100326.16;2138650;83;28254;-69
2022/04/26 10:46:18;;;;;;;6.65;5.00;;;;;;;15.45;55.17;100325.13;2138316;83;32289;-67
2022/04/26 10:49:38;;;;;;;7.95;5.75;;;;;;;15.47;55.77;100321.81;2138367;83;34207;-64
2022/04/26 10:52:40;;;;;;;6.72;5.70;;;;;;;15.54;53.21;100322.74;2137633;83;30946;-67
2022/04/26 10:55:42;;;;;;;8.85;5.08;;;;;;;15.62;55.26;100317.18;2139050;83;27766;-66
2022/04/26 10:58:52;;;;;;;5.60;5.08;;;;;;;15.76;55.27;100316.68;2138493;83;29942;-63
2022/04/26 11:01:56;;;;;;;5.50;4.87;;;;;;;15.99;55.07;100319.11;2138852;83;31085;-61
2022/04/26 11:05:03;;;;;;;5.97;4.92;;;;;;;16.21;52.94;100320.27;2182042;81;33002;-66
2022/04/26 11:08:06;;;;;;;5.45;4.95;;;;;;;16.13;53.14;100325.38;2194500;81;30415;-67
2022/04/26 11:11:11;;;;;;;6.37;5.22;;;;;;;16.16;53.44;100319.73;2194329;81;27638;-68
2022/04/26 11:14:12;;;;;;;5.33;4.65;;;;;;;16.28;54.23;100329.66;2194311;81;29449;-69
2022/04/26 11:17:18;;;;;;;8.75;5.85;;;;;;;16.42;52.64;100325.08;2194568;81;32212;-65
2022/04/26 11:20:22;;;;;;;7.83;6.22;;;;;;;16.47;52.46;100327.81;2194305;81;32954;-68
2022/04/26 11:30:29;;;;;;;7.35;5.97;;;;;;;16.06;50.62;100338.45;2194518;81;29936;-62
2022/04/26 11:33:32;;;;;;;9.20;6.33;;;;;;;15.80;52.20;100333.05;2193878;81;31069;-61
2022/04/26 11:36:39;;;;;;;6.35;5.58;;;;;;;15.65;52.38;100334.52;2194709;81;34345;-60
2022/04/26 11:39:42;;;;;;;5.85;5.25;;;;;;;15.49;52.54;100332.02;2194926;81;29824;-63
2022/04/26 11:42:45;;;;;;;7.08;6.03;;;;;;;15.40;52.26;100341.25;2194665;81;27762;-60
2022/04/26 11:45:50;;;;;;;7.20;5.78;;;;;;;15.47;51.15;100345.27;2194419;81;29569;-60
2022/04/26 11:48:56;;;;;;;8.48;5.62;;;;;;;15.50;52.20;100338.30;2194933;81;31091;-59
2022/04/26 11:52:01;;;;;;;7.72;5.85;;;;;;;15.74;52.23;100340.23;2194644;81;32982;-60
2022/04/26 11:55:05;;;;;;;6.17;4.95;;;;;;;15.91;52.02;100337.73;2194852;81;29635;-60
2022/04/26 11:58:23;;;;;;;6.00;5.08;;;;;;;16.08;51.58;100336.03;2194879;81;27677;-60
2022/04/26 12:01:26;;;;;;;8.43;5.53;;;;;;;16.27;50.87;100333.81;2194739;81;29058;-59
2022/04/26 12:04:28;;;;;;;8.10;5.62;;;;;;;16.33;50.64;100334.73;2194765;81;31028;-60
2022/04/26 12:07:32;;;;;;;6.42;4.67;;;;;;;16.35;51.11;100331.42;2194782;81;32784;-60
2022/04/26 12:10:34;;;;;;;6.42;4.65;;;;;;;16.48;50.00;100329.54;2194682;81;29476;-59
2022/04/26 12:13:38;;;;;;;5.37;4.63;;;;;;;16.48;50.30;100330.89;2194822;81;28243;-60
2022/04/26 12:16:47;;;;;;;5.28;4.15;;;;;;;16.39;49.78;100335.14;2194473;81;30047;-59
2022/04/26 12:19:52;;;;;;;5.95;5.30;;;;;;;16.24;49.94;100333.06;2194822;81;30981;-64
2022/04/26 12:22:57;;;;;;;5.55;4.67;;;;;;;16.08;49.54;100334.68;2194783;81;33450;-60
2022/04/26 12:26:09;;;;;;;5.92;4.60;;;;;;;15.92;50.26;100330.85;2194344;81;30808;-61
2022/04/26 12:29:17;;;;;;;6.67;4.72;;;;;;;15.86;50.15;100334.02;2194878;81;27616;-60
2022/04/26 12:32:24;;;;;;;5.20;4.70;;;;;;;15.76;49.85;100332.42;2195023;81;28813;-61
2022/04/26 12:35:27;;;;;;;5.95;5.35;;;;;;;15.62;50.12;100332.03;2194481;81;32132;-65
2022/04/26 12:38:30;;;;;;;6.97;5.30;;;;;;;15.55;50.46;100329.41;2148735;81;32996;-60
2022/04/26 12:41:49;;;;;;;7.62;4.90;;;;;;;15.52;50.04;100325.56;2109101;84;29842;-60
2022/04/26 12:44:55;;;;;;;6.17;4.85;;;;;;;15.49;50.13;100327.97;2147363;82;27689;-61
2022/04/26 12:51:33;;;;;;;10.23;5.80;;;;;;;15.42;48.88;100322.64;2147104;82;31876;-60
2022/04/26 12:54:37;;;;;;;9.78;5.45;;;;;;;15.37;49.44;100327.48;2109005;84;32798;-61
2022/04/26 12:57:50;;;;;;;7.05;4.90;;;;;;;15.34;49.23;100325.88;2140401;82;30028;-61
2022/04/26 13:00:55;;;;;;;7.30;6.25;;;;;;;15.32;49.51;100318.37;2109191;84;27611;-61
2022/04/26 13:03:58;;;;;;;;;;;;;;;15.30;49.57;100323.00;2120615;84;29487;-61
2022/04/26 13:07:00;;;;;;;8.40;5.25;;;;;;;15.30;49.55;100317.61;2146885;82;31402;-60
2022/04/26 13:10:03;;;;;;;6.97;6.00;;;;;;;15.31;49.87;100316.63;2146733;82;33838;-62
2022/04/26 13:13:09;;;;;;;11.15;6.40;;;;;;;15.27;50.18;100317.81;2146766;82;30499;-62
2022/04/26 13:16:11;;;;;;;7.35;5.28;;;;;;;15.34;50.31;100316.42;2146961;82;27748;-60
2022/04/26 13:19:14;;;;;;;8.35;5.58;;;;;;;15.44;50.10;100315.77;2146893;82;29904;-60
2022/04/26 13:22:18;;;;;;;7.45;4.78;;;;;;;15.49;50.13;100320.38;2147183;82;32177;-61
2022/04/26 13:25:20;;;;;;;7.97;5.33;;;;;;;15.57;50.41;100317.13;2147305;82;33763;-61
2022/04/26 13:28:23;;;;;;;11.00;6.05;;;;;;;15.62;50.16;100313.63;2146753;82;30773;-61
2022/04/26 13:31:26;;;;;;;6.17;5.22;;;;;;;15.41;49.84;100293.03;2147288;82;27643;-61
2022/04/26 13:34:48;;;;;;;6.67;5.47;;;;;;;15.38;50.23;100302.72;2147178;82;29704;-62
2022/04/26 13:37:52;;;;;;;6.33;4.80;;;;;;;15.38;50.23;100302.72;2091870;84;31583;-60
2022/04/26 13:40:59;;;;;;;4.53;4.10;;;;;;;15.28;49.89;100307.39;2092157;85;33993;-60
2022/04/26 13:43:59;;;;;;;5.25;4.50;;;;;;;15.23;48.74;100314.09;2092442;83;29824;-60
2022/04/26 13:47:04;;;;;;;7.40;4.92;;;;;;;15.08;49.41;100317.34;2091861;84;27693;-61
2022/04/26 13:50:08;;;;;;;11.78;8.08;;;;;;;15.01;48.95;100314.20;2091937;84;29939;-59
2022/04/26 13:53:10;;;;;;;7.30;5.33;;;;;;;14.87;49.05;100317.36;2092303;85;31013;-60
2022/04/26 13:56:12;;;;;;;8.60;7.80;;;;;;;14.77;49.48;100320.30;2092061;84;33706;-62
2022/04/26 13:59:14;;;;;;;12.28;8.70;;;;;;;14.68;49.24;100322.25;2091777;85;30453;-61
2022/04/26 14:02:18;;;;;;;7.40;6.67;;;;;;;14.57;49.87;100324.27;2092046;84;27697;-60
2022/04/26 14:05:23;;;;;;;13.03;9.60;;;;;;;14.45;49.49;100320.58;2092208;85;29483;-63
2022/04/26 14:08:24;;;;;;;9.75;6.58;;;;;;;14.31;49.94;100324.17;2091778;83;32432;-60
2022/04/26 14:11:26;;;;;;;7.87;6.08;;;;;;;14.18;49.92;100324.58;2092142;84;33349;-60
2022/04/26 14:24:32;;;;;;;6.08;4.92;;;;;;;13.79;50.32;100322.99;2091914;84;32261;-59
2022/04/26 14:27:34;;;;;;;6.42;4.60;;;;;;;13.72;50.30;100327.90;2091966;84;33763;-61
2022/04/26 14:30:37;;;;;;;9.75;5.60;;;;;;;13.66;50.41;100331.81;2091769;85;30921;-63
2022/04/26 14:33:39;;;;;;;9.53;6.35;;;;;;;13.60;50.26;100332.67;2091833;85;27735;-60
2022/04/26 14:36:41;;;;;;;8.48;6.17;;;;;;;13.49;50.21;100333.33;2091806;84;29049;-60
2022/04/26 14:39:44;;;;;;;8.53;6.10;;;;;;;13.42;50.70;100330.16;2092151;85;31082;-60
2022/04/26 14:42:46;;;;;;;12.18;8.65;;;;;;;13.38;50.75;100330.80;2091694;85;34026;-60
2022/04/26 14:45:50;;;;;;;9.03;6.33;;;;;;;13.35;51.12;100327.44;2091823;85;30807;-60
2022/04/26 14:48:52;;;;;;;8.95;5.45;;;;;;;13.31;51.18;100331.27;2092121;85;27608;-61
2022/04/26 14:51:54;;;;;;;7.78;6.22;;;;;;;13.26;51.43;100318.56;2091541;84;29898;-61
2022/04/26 14:54:57;;;;;;;7.15;5.92;;;;;;;13.23;51.17;100323.66;2091953;85;32220;-61
2022/04/26 14:58:00;;;;;;;8.93;6.30;;;;;;;13.17;51.12;100324.90;2091994;85;33811;-61
2022/04/26 15:01:03;;;;;;;10.93;7.15;;;;;;;13.12;51.30;100326.98;2091736;85;30523;-61
2022/04/26 15:04:04;;;;;;;11.73;6.53;;;;;;;13.11;51.33;100321.72;2091876;84;27720;-61
2022/04/26 15:07:07;;;;;;;10.18;6.28;;;;;;;13.10;51.57;100322.17;2091916;85;29106;-62
2022/04/26 15:10:09;;;;;;;9.30;6.42;;;;;;;13.14;51.73;100321.05;2091568;84;32242;-60
2022/04/26 15:16:37;;;;;;;11.75;7.25;;;;;;;13.16;52.14;100319.59;2092170;84;30834;-61
2022/04/26 15:19:40;;;;;;;7.00;5.70;;;;;;;13.20;52.29;100321.15;2091937;84;27605;-61
2022/04/26 15:22:42;;;;;;;7.92;6.20;;;;;;;13.20;51.94;100326.53;2091943;85;29367;-61
2022/04/26 15:25:50;;;;;;;7.95;5.78;;;;;;;13.20;52.14;100326.06;2091744;84;27703;-62
2022/04/26 15:28:49;;;;;;;12.45;9.23;;;;;;;13.18;52.25;100328.44;2092405;83;33035;-61
2022/04/26 15:31:52;;;;;;;13.62;7.55;;;;;;;13.17;52.43;100324.90;2091760;85;30851;-61
2022/04/26 15:34:54;;;;;;;14.05;8.15;;;;;;;13.21;52.81;100330.48;2091769;85;28189;-60
2022/04/26 15:37:56;;;;;;;8.83;5.90;;;;;;;13.24;52.57;100332.12;2091643;84;29498;-61
2022/04/26 15:41:05;;;;;;;10.80;7.10;;;;;;;13.26;52.70;100325.28;2091853;84;31748;-62
2022/04/26 15:44:06;;;;;;;10.75;8.23;;;;;;;13.28;52.91;100329.64;2091852;83;34256;-60
2022/04/26 15:47:09;;;;;;;8.95;6.45;;;;;;;13.30;52.94;100331.76;2091955;85;29634;-60
2022/04/26 15:50:11;;;;;;;9.33;6.30;;;;;;;13.24;52.59;100337.99;2092080;84;27675;-60
2022/04/26 15:53:13;;;;;;;9.33;6.03;;;;;;;13.21;52.68;100334.52;2091933;84;29491;-60
2022/04/26 15:56:15;;;;;;;9.28;5.47;;;;;;;13.18;53.07;100329.78;2091708;85;31624;-61
2022/04/26 15:59:17;;;;;;;8.70;5.67;;;;;;;13.16;53.02;100329.01;2091683;84;33857;-61
2022/04/26 16:02:23;;;;;;;10.03;7.10;;;;;;;13.14;53.05;100333.64;2091736;84;30502;-60
2022/04/26 16:05:22;;;;;;;10.23;6.72;;;;;;;13.11;53.25;100330.63;2092704;83;27699;-60
2022/04/26 16:08:24;;;;;;;10.03;5.95;;;;;;;13.11;53.54;100329.78;2091727;84;29939;-61
2022/04/26 16:21:30;;;;;;;9.35;7.12;;;;;;;13.00;54.01;100333.96;2092201;84;27663;-60
2022/04/26 16:24:38;;;;;;;12.60;7.70;;;;;;;12.97;53.92;100329.25;2091890;84;29895;-61
2022/04/26 16:27:36;;;;;;;10.53;7.70;;;;;;;12.95;54.16;100337.42;2093387;83;31788;-59
2022/04/26 16:30:41;;;;;;;10.75;7.78;;;;;;;12.93;54.49;100337.98;2091774;84;32476;-61
2022/04/26 16:33:43;;;;;;;10.93;7.78;;;;;;;12.93;54.75;100337.98;2092323;84;31304;-60
2022/04/26 16:36:46;;;;;;;11.03;8.33;;;;;;;12.93;55.02;100339.33;2092037;85;27719;-59
2022/04/26 16:39:49;;;;;;;14.15;7.62;;;;;;;12.92;54.85;100337.59;2091740;84;29983;-61
2022/04/26 16:42:51;;;;;;;11.88;8.45;;;;;;;12.93;55.23;100337.98;2091632;84;31999;-60
2022/04/26 16:45:56;;;;;;;14.65;9.15;;;;;;;12.93;55.64;100336.64;2091712;84;33792;-60
2022/04/26 16:49:02;;;;;;;13.93;8.98;;;;;;;12.94;56.14;100343.75;2092284;84;29627;-60
2022/04/26 16:52:14;;;;;;;13.88;8.10;;;;;;;12.95;56.47;100336.08;2091975;83;27710;-60
2022/04/26 16:55:24;;;;;;;10.25;7.62;;;;;;;12.95;56.14;100344.14;2119383;83;27733;-59
2022/04/26 16:58:29;;;;;;;11.97;7.42;;;;;;;12.94;56.54;100349.13;2091961;84;32010;-60
2022/04/26 17:01:32;;;;;;;12.90;7.50;;;;;;;12.94;56.73;100350.94;2092172;84;32976;-60
2022/04/26 17:04:34;;;;;;;12.68;9.03;;;;;;;12.91;56.77;100348.81;2092219;85;30833;-59
2022/04/26 17:07:36;;;;;;;16.77;11.33;;;;;;;12.92;57.09;100350.55;2092031;85;27603;-59
2022/04/26 17:10:38;;;;;;;17.17;10.65;;;;;;;12.91;56.90;100358.72;2091886;84;29544;-60
2022/04/26 17:13:42;;;;;;;15.08;10.72;;;;;;;12.86;56.76;100357.65;2092143;85;30582;-59
2022/04/26 17:16:47;;;;;;;15.93;9.98;;;;;;;12.83;57.06;100356.94;2092093;84;32925;-61
2022/04/26 17:19:50;;;;;;;16.87;9.43;;;;;;;12.81;57.11;100368.29;2092366;85;30279;-60
2022/04/26 17:22:52;;;;;;;14.45;10.55;;;;;;;12.76;57.32;100368.07;2092196;85;28073;-60
2022/04/26 17:25:55;;;;;;;16.27;10.53;;;;;;;12.73;57.44;100370.08;2092044;84;28833;-60
2022/04/26 17:28:58;;;;;;;18.40;10.80;;;;;;;12.68;57.58;100381.07;2091974;84;30791;-60
2022/04/26 17:32:00;;;;;;;17.87;10.53;;;;;;;12.63;57.62;100375.11;2092012;85;34149;-60
2022/04/26 17:35:19;;;;;;;16.67;10.20;;;;;;;12.58;57.81;100378.04;2092199;85;30872;-60
2022/04/26 17:38:30;;;;;;;15.28;9.68;;;;;;;12.52;58.09;100381.55;2091374;84;27664;-60
2022/04/26 17:41:39;;;;;;;20.20;10.58;;;;;;;12.44;58.06;100388.70;2092390;84;29366;-61
2022/04/26 17:44:46;;;;;;;14.95;9.70;;;;;;;12.36;58.30;100386.94;2092180;85;31424;-61
2022/04/26 17:47:49;;;;;;;13.55;10.20;;;;;;;12.24;58.38;100386.67;2092096;85;33680;-61
2022/04/26 17:50:51;;;;;;;15.23;11.05;;;;;;;12.11;58.32;100390.96;2092187;84;29660;-59
2022/04/26 17:57:17;;;;;;;16.20;10.28;;;;;;;11.82;58.49;100391.58;2092112;85;29139;-60
2022/04/26 18:00:19;;;;;;;17.07;10.60;;;;;;;11.65;58.69;100403.69;2092145;85;32255;-61
2022/04/26 18:03:23;;;;;;;20.50;12.05;;;;;;;11.50;58.77;100402.66;2092316;85;34186;-61
2022/04/26 18:06:25;;;;;;;18.17;12.33;;;;;;;11.33;59.07;100412.44;2092307;85;29693;-61
2022/04/26 18:09:28;;;;;;;16.52;12.25;;;;;;;11.16;59.17;100409.74;2092057;84;27676;-60
2022/04/26 18:12:30;;;;;;;21.55;11.90;;;;;;;10.98;59.33;100411.55;2092181;85;28641;-60
2022/04/26 18:15:32;;;;;;;27.45;12.33;;;;;;;10.79;59.42;100411.95;2091840;85;32299;-61
2022/04/26 18:18:34;;;;;;;21.33;13.28;;;;;;;10.60;59.63;100421.37;2091814;84;33824;-60
2022/04/26 18:21:37;;;;;;;24.30;14.53;;;;;;;10.42;59.71;100427.14;2092149;85;29987;-60
2022/04/26 18:24:39;;;;;;;22.75;12.47;;;;;;;10.25;60.02;100436.40;2092104;84;27645;-60
2022/04/26 18:27:42;;;;;;;27.65;15.90;;;;;;;10.10;60.41;100436.62;2091946;85;29366;-61
2022/04/26 18:30:44;;;;;;;28.50;18.45;;;;;;;9.94;60.72;100441.78;2092164;84;31849;-60
2022/04/26 18:33:48;;;;;;;28.20;17.60;;;;;;;9.77;60.97;100450.09;2092208;85;33795;-60